Amanda Park, Washington
Current Conditions -  °F | °C
As of 12:53 AM on Friday 24 Oct 2014 (Local Time) from KHQM Reporting Station
Overcast Overcast  
Wind Chill: 50°   Ceiling: 6000
Heat Index: 50°   Visibility: 8mi
Dew Point: 48°   Wind: 7mph
Humidity: 93%   Direction: 70°ENE
Pressure: 29.98"   Gusts: NA
Location:  47.46°N, 123.89°W
Report Text: KHQM 240753Z AUTO 07006KT 8SM OVC060 10/09 A2998 RMK AO2 SLP157 T01000089 401610094
Loading
Personal Weather Stations






























Interactive Weather Map New forecast layout! Learn more

10-Day Weather Forecast

Advertisements
Track Severe Weather on mobile